sensor_id;sensor_type;location;lat;lon;timestamp;pressure;altitude;pressure_sealevel;temperature;humidity
45327;BME280;31062;49.678;24.560;2023-08-20T00:00:30;98623.78;;;22.80;71.74
45327;BME280;31062;49.678;24.560;2023-08-20T00:03:15;98600.88;;;22.72;71.40
45327;BME280;31062;49.678;24.560;2023-08-20T00:06:01;98614.66;;;22.82;71.39
45327;BME280;31062;49.678;24.560;2023-08-20T00:08:49;98609.72;;;22.82;71.51
45327;BME280;31062;49.678;24.560;2023-08-20T00:11:36;98516.84;;;22.13;71.92
45327;BME280;31062;49.678;24.560;2023-08-20T00:15:00;98604.56;;;22.57;72.06
45327;BME280;31062;49.678;24.560;2023-08-20T00:17:54;98458.78;;;21.33;72.41
45327;BME280;31062;49.678;24.560;2023-08-20T00:20:40;98462.34;;;21.16;72.91
45327;BME280;31062;49.678;24.560;2023-08-20T00:23:26;98473.38;;;21.28;73.26
45327;BME280;31062;49.678;24.560;2023-08-20T00:26:12;98568.09;;;21.88;73.48
45327;BME280;31062;49.678;24.560;2023-08-20T00:28:58;98595.88;;;22.13;73.66
45327;BME280;31062;49.678;24.560;2023-08-20T00:31:43;98595.31;;;22.17;73.50
45327;BME280;31062;49.678;24.560;2023-08-20T00:34:29;98604.44;;;22.15;73.28
45327;BME280;31062;49.678;24.560;2023-08-20T00:37:14;98539.34;;;21.74;72.86
45327;BME280;31062;49.678;24.560;2023-08-20T00:40:00;98523.50;;;21.84;72.69
45327;BME280;31062;49.678;24.560;2023-08-20T00:42:45;98586.78;;;22.34;72.52
45327;BME280;31062;49.678;24.560;2023-08-20T00:45:31;98491.13;;;21.68;72.47
45327;BME280;31062;49.678;24.560;2023-08-20T00:48:17;98580.00;;;22.42;72.38
45327;BME280;31062;49.678;24.560;2023-08-20T00:51:03;98548.13;;;22.19;72.02
45327;BME280;31062;49.678;24.560;2023-08-20T00:53:49;98574.94;;;22.38;71.61
45327;BME280;31062;49.678;24.560;2023-08-20T00:56:34;98584.34;;;22.45;70.89
45327;BME280;31062;49.678;24.560;2023-08-20T00:59:20;98551.16;;;22.25;70.46
45327;BME280;31062;49.678;24.560;2023-08-20T01:02:06;98500.06;;;21.80;70.26
45327;BME280;31062;49.678;24.560;2023-08-20T01:04:51;98579.72;;;22.33;70.13
45327;BME280;31062;49.678;24.560;2023-08-20T01:07:43;98575.94;;;22.27;70.76
45327;BME280;31062;49.678;24.560;2023-08-20T01:10:42;98435.94;;;21.25;70.89
45327;BME280;31062;49.678;24.560;2023-08-20T01:13:34;98585.78;;;22.26;70.95
45327;BME280;31062;49.678;24.560;2023-08-20T01:16:19;98580.53;;;22.18;71.03
45327;BME280;31062;49.678;24.560;2023-08-20T01:19:05;98586.38;;;22.22;71.03
45327;BME280;31062;49.678;24.560;2023-08-20T01:25:08;98570.13;;;22.03;70.71
45327;BME280;31062;49.678;24.560;2023-08-20T01:31:00;98578.94;;;22.13;71.11
45327;BME280;31062;49.678;24.560;2023-08-20T01:33:46;98471.09;;;21.42;70.83
45327;BME280;31062;49.678;24.560;2023-08-20T01:36:32;98566.78;;;22.09;70.89
45327;BME280;31062;49.678;24.560;2023-08-20T01:39:17;98487.78;;;21.53;70.84
45327;BME280;31062;49.678;24.560;2023-08-20T01:42:04;98405.88;;;20.96;70.85
45327;BME280;31062;49.678;24.560;2023-08-20T01:44:49;98522.66;;;21.62;71.07
45327;BME280;31062;49.678;24.560;2023-08-20T01:47:35;98550.13;;;21.97;71.08
45327;BME280;31062;49.678;24.560;2023-08-20T01:50:21;98540.59;;;21.88;71.01
45327;BME280;31062;49.678;24.560;2023-08-20T01:53:06;98570.97;;;22.08;70.66
45327;BME280;31062;49.678;24.560;2023-08-20T01:55:55;98565.97;;;22.06;70.81
45327;BME280;31062;49.678;24.560;2023-08-20T01:58:42;98512.75;;;21.61;70.35
45327;BME280;31062;49.678;24.560;2023-08-20T02:01:27;98510.06;;;21.65;70.51
45327;BME280;31062;49.678;24.560;2023-08-20T02:04:12;98567.28;;;22.03;70.58
45327;BME280;31062;49.678;24.560;2023-08-20T02:06:58;98465.81;;;21.32;70.48
45327;BME280;31062;49.678;24.560;2023-08-20T02:09:45;98571.25;;;21.96;70.40
45327;BME280;31062;49.678;24.560;2023-08-20T02:12:32;98573.44;;;21.97;70.40
45327;BME280;31062;49.678;24.560;2023-08-20T02:15:18;98593.84;;;21.96;69.98
45327;BME280;31062;49.678;24.560;2023-08-20T02:18:04;98539.16;;;21.70;69.97
45327;BME280;31062;49.678;24.560;2023-08-20T02:20:51;98570.19;;;21.87;70.23
45327;BME280;31062;49.678;24.560;2023-08-20T02:23:37;98521.38;;;21.47;70.04
45327;BME280;31062;49.678;24.560;2023-08-20T02:26:24;98564.38;;;21.83;69.97
45327;BME280;31062;49.678;24.560;2023-08-20T02:29:09;98557.41;;;21.67;70.71
45327;BME280;31062;49.678;24.560;2023-08-20T02:31:55;98528.38;;;21.46;70.62
45327;BME280;31062;49.678;24.560;2023-08-20T02:34:40;98418.19;;;20.69;70.44
45327;BME280;31062;49.678;24.560;2023-08-20T02:37:26;98417.41;;;20.67;70.40
45327;BME280;31062;49.678;24.560;2023-08-20T02:40:11;98603.03;;;21.79;70.07
45327;BME280;31062;49.678;24.560;2023-08-20T02:42:58;98539.84;;;21.50;70.44
45327;BME280;31062;49.678;24.560;2023-08-20T02:45:44;98574.72;;;21.77;70.24
45327;BME280;31062;49.678;24.560;2023-08-20T02:48:30;98422.38;;;20.68;70.80
45327;BME280;31062;49.678;24.560;2023-08-20T02:51:15;98544.28;;;21.38;70.92
45327;BME280;31062;49.678;24.560;2023-08-20T02:54:00;98432.03;;;20.63;71.27
45327;BME280;31062;49.678;24.560;2023-08-20T02:56:46;98579.81;;;21.63;71.78
45327;BME280;31062;49.678;24.560;2023-08-20T02:59:32;98578.19;;;21.57;71.68
45327;BME280;31062;49.678;24.560;2023-08-20T03:02:17;98536.91;;;21.13;72.06
45327;BME280;31062;49.678;24.560;2023-08-20T03:05:03;98593.34;;;21.48;72.32
45327;BME280;31062;49.678;24.560;2023-08-20T03:07:51;98548.53;;;21.21;72.44
45327;BME280;31062;49.678;24.560;2023-08-20T03:10:37;98579.81;;;21.45;72.53
45327;BME280;31062;49.678;24.560;2023-08-20T03:13:23;98437.38;;;20.40;72.49
45327;BME280;31062;49.678;24.560;2023-08-20T03:16:08;98433.28;;;20.27;72.42
45327;BME280;31062;49.678;24.560;2023-08-20T03:18:53;98552.03;;;21.04;72.48
45327;BME280;31062;49.678;24.560;2023-08-20T03:21:39;98583.38;;;21.12;72.78
45327;BME280;31062;49.678;24.560;2023-08-20T03:24:24;98439.25;;;20.02;72.81
45327;BME280;31062;49.678;24.560;2023-08-20T03:27:10;98425.81;;;19.84;72.92
45327;BME280;31062;49.678;24.560;2023-08-20T03:29:55;98577.47;;;20.72;73.13
45327;BME280;31062;49.678;24.560;2023-08-20T03:32:41;98482.63;;;20.12;73.15
45327;BME280;31062;49.678;24.560;2023-08-20T03:35:26;98569.03;;;20.72;73.27
45327;BME280;31062;49.678;24.560;2023-08-20T03:38:11;98587.81;;;20.84;73.08
45327;BME280;31062;49.678;24.560;2023-08-20T03:40:59;98592.09;;;20.85;72.80
45327;BME280;31062;49.678;24.560;2023-08-20T03:43:45;98464.47;;;20.00;72.58
45327;BME280;31062;49.678;24.560;2023-08-20T03:46:30;98581.75;;;20.73;72.83
45327;BME280;31062;49.678;24.560;2023-08-20T03:49:16;98578.69;;;20.67;72.80
45327;BME280;31062;49.678;24.560;2023-08-20T03:52:02;98548.00;;;20.42;72.95
45327;BME280;31062;49.678;24.560;2023-08-20T03:54:48;98568.16;;;20.52;72.99
45327;BME280;31062;49.678;24.560;2023-08-20T03:57:33;98459.22;;;19.76;73.23
45327;BME280;31062;49.678;24.560;2023-08-20T04:00:19;98550.88;;;20.44;73.32
45327;BME280;31062;49.678;24.560;2023-08-20T04:03:05;98551.16;;;20.50;73.36
45327;BME280;31062;49.678;24.560;2023-08-20T04:05:51;98547.06;;;20.53;73.44
45327;BME280;31062;49.678;24.560;2023-08-20T04:08:37;98590.28;;;20.75;73.58
45327;BME280;31062;49.678;24.560;2023-08-20T04:11:22;98598.56;;;20.71;73.61
45327;BME280;31062;49.678;24.560;2023-08-20T04:14:07;98453.06;;;19.95;73.78
45327;BME280;31062;49.678;24.560;2023-08-20T04:16:53;98554.84;;;20.70;73.71
45327;BME280;31062;49.678;24.560;2023-08-20T04:19:38;98581.00;;;20.89;73.99
45327;BME280;31062;49.678;24.560;2023-08-20T04:22:25;98459.47;;;20.14;74.19
45327;BME280;31062;49.678;24.560;2023-08-20T04:25:10;98539.50;;;20.73;74.12
45327;BME280;31062;49.678;24.560;2023-08-20T04:27:57;98571.59;;;21.00;74.03
45327;BME280;31062;49.678;24.560;2023-08-20T04:30:42;98410.75;;;19.93;73.79
45327;BME280;31062;49.678;24.560;2023-08-20T04:33:29;98458.63;;;20.27;74.43
45327;BME280;31062;49.678;24.560;2023-08-20T04:36:15;98585.09;;;21.19;74.58
45327;BME280;31062;49.678;24.560;2023-08-20T04:39:01;98564.69;;;21.03;74.96
45327;BME280;31062;49.678;24.560;2023-08-20T04:41:48;98608.78;;;21.30;74.85
45327;BME280;31062;49.678;24.560;2023-08-20T04:44:36;98467.25;;;20.47;74.91
45327;BME280;31062;49.678;24.560;2023-08-20T04:47:21;98552.72;;;21.20;75.02
45327;BME280;31062;49.678;24.560;2023-08-20T04:50:07;98593.69;;;21.56;74.66
45327;BME280;31062;49.678;24.560;2023-08-20T04:52:53;98549.19;;;21.37;74.74
45327;BME280;31062;49.678;24.560;2023-08-20T04:55:40;98548.78;;;21.45;74.99
45327;BME280;31062;49.678;24.560;2023-08-20T04:58:26;98576.03;;;21.56;74.63
45327;BME280;31062;49.678;24.560;2023-08-20T05:01:13;98482.16;;;21.18;74.22
45327;BME280;31062;49.678;24.560;2023-08-20T05:03:58;98608.94;;;22.22;74.27
45327;BME280;31062;49.678;24.560;2023-08-20T05:06:44;98599.47;;;22.33;73.71
45327;BME280;31062;49.678;24.560;2023-08-20T05:09:29;98597.25;;;22.50;73.38
45327;BME280;31062;49.678;24.560;2023-08-20T05:12:14;98569.00;;;22.50;73.08
45327;BME280;31062;49.678;24.560;2023-08-20T05:15:00;98590.00;;;22.84;72.87
45327;BME280;31062;49.678;24.560;2023-08-20T05:17:45;98590.56;;;23.00;72.35
45327;BME280;31062;49.678;24.560;2023-08-20T05:20:31;98568.66;;;23.01;71.82
45327;BME280;31062;49.678;24.560;2023-08-20T05:23:17;98600.34;;;23.39;71.31
45327;BME280;31062;49.678;24.560;2023-08-20T05:26:02;98544.28;;;23.11;70.93
45327;BME280;31062;49.678;24.560;2023-08-20T05:28:48;98488.66;;;22.96;70.35
45327;BME280;31062;49.678;24.560;2023-08-20T05:31:33;98546.53;;;23.58;70.61
45327;BME280;31062;49.678;24.560;2023-08-20T05:34:19;98604.34;;;24.21;69.93
45327;BME280;31062;49.678;24.560;2023-08-20T05:37:05;98506.13;;;23.80;68.64
45327;BME280;31062;49.678;24.560;2023-08-20T05:39:50;98457.94;;;23.54;68.35
45327;BME280;31062;49.678;24.560;2023-08-20T05:42:36;98464.31;;;23.78;67.48
45327;BME280;31062;49.678;24.560;2023-08-20T05:45:24;98450.41;;;23.39;67.18
45327;BME280;31062;49.678;24.560;2023-08-20T05:48:11;98472.41;;;24.14;66.77
45327;BME280;31062;49.678;24.560;2023-08-20T05:50:57;98468.50;;;24.25;66.92
45327;BME280;31062;49.678;24.560;2023-08-20T05:53:42;98603.03;;;25.27;65.81
45327;BME280;31062;49.678;24.560;2023-08-20T05:56:28;98492.03;;;24.57;66.11
45327;BME280;31062;49.678;24.560;2023-08-20T05:59:14;98480.47;;;24.49;66.18
45327;BME280;31062;49.678;24.560;2023-08-20T06:02:01;98573.66;;;25.44;65.52
45327;BME280;31062;49.678;24.560;2023-08-20T06:04:47;98595.56;;;25.70;64.97
45327;BME280;31062;49.678;24.560;2023-08-20T06:07:32;98524.50;;;25.36;65.53
45327;BME280;31062;49.678;24.560;2023-08-20T06:10:19;98510.97;;;25.34;64.98
45327;BME280;31062;49.678;24.560;2023-08-20T06:13:04;98563.31;;;25.87;64.41
45327;BME280;31062;49.678;24.560;2023-08-20T06:15:50;98592.53;;;26.23;64.10
45327;BME280;31062;49.678;24.560;2023-08-20T06:18:40;98568.25;;;26.18;63.72
45327;BME280;31062;49.678;24.560;2023-08-20T06:21:25;98482.09;;;25.74;63.46
45327;BME280;31062;49.678;24.560;2023-08-20T06:24:11;98589.09;;;26.65;62.92
45327;BME280;31062;49.678;24.560;2023-08-20T06:26:57;98582.75;;;26.66;62.87
45327;BME280;31062;49.678;24.560;2023-08-20T06:29:43;98582.13;;;26.72;63.02
45327;BME280;31062;49.678;24.560;2023-08-20T06:32:29;98593.69;;;26.80;62.54
45327;BME280;31062;49.678;24.560;2023-08-20T06:35:14;98597.25;;;26.82;62.52
45327;BME280;31062;49.678;24.560;2023-08-20T06:38:00;98595.28;;;26.89;62.65
45327;BME280;31062;49.678;24.560;2023-08-20T06:40:46;98519.56;;;26.34;62.90
45327;BME280;31062;49.678;24.560;2023-08-20T06:43:33;98593.28;;;26.96;62.51
45327;BME280;31062;49.678;24.560;2023-08-20T06:46:19;98583.66;;;26.77;62.72
45327;BME280;31062;49.678;24.560;2023-08-20T06:49:04;98475.94;;;26.19;62.37
45327;BME280;31062;49.678;24.560;2023-08-20T06:51:50;98592.88;;;27.13;62.74
45327;BME280;31062;49.678;24.560;2023-08-20T06:54:35;98556.25;;;26.94;62.26
45327;BME280;31062;49.678;24.560;2023-08-20T06:57:22;98595.94;;;27.26;62.41
45327;BME280;31062;49.678;24.560;2023-08-20T07:00:08;98597.44;;;27.31;62.34
45327;BME280;31062;49.678;24.560;2023-08-20T07:02:54;98481.00;;;26.61;62.13
45327;BME280;31062;49.678;24.560;2023-08-20T07:05:39;98560.34;;;27.25;62.26
45327;BME280;31062;49.678;24.560;2023-08-20T07:08:25;98608.72;;;27.67;61.86
45327;BME280;31062;49.678;24.560;2023-08-20T07:11:10;98540.41;;;27.23;62.36
45327;BME280;31062;49.678;24.560;2023-08-20T07:13:56;98600.50;;;27.43;61.94
45327;BME280;31062;49.678;24.560;2023-08-20T07:16:42;98612.63;;;27.87;61.51
45327;BME280;31062;49.678;24.560;2023-08-20T07:19:31;98589.69;;;27.79;61.49
45327;BME280;31062;49.678;24.560;2023-08-20T07:22:17;98579.78;;;27.82;61.78
45327;BME280;31062;49.678;24.560;2023-08-20T07:25:03;98597.28;;;28.11;61.41
45327;BME280;31062;49.678;24.560;2023-08-20T07:27:49;98552.78;;;27.87;61.53
45327;BME280;31062;49.678;24.560;2023-08-20T07:30:37;98596.22;;;28.38;61.36
45327;BME280;31062;49.678;24.560;2023-08-20T07:33:23;98479.13;;;27.64;60.52
45327;BME280;31062;49.678;24.560;2023-08-20T07:36:09;98613.59;;;28.58;60.62
45327;BME280;31062;49.678;24.560;2023-08-20T07:38:56;98605.19;;;28.70;59.58
45327;BME280;31062;49.678;24.560;2023-08-20T07:41:47;98592.34;;;28.71;59.47
45327;BME280;31062;49.678;24.560;2023-08-20T07:44:34;98590.91;;;28.72;59.76
45327;BME280;31062;49.678;24.560;2023-08-20T07:47:21;98554.94;;;28.41;59.59
45327;BME280;31062;49.678;24.560;2023-08-20T07:50:07;98593.94;;;28.85;60.02
45327;BME280;31062;49.678;24.560;2023-08-20T07:52:54;98591.19;;;28.95;60.82
45327;BME280;31062;49.678;24.560;2023-08-20T07:55:41;98575.56;;;29.00;60.04
45327;BME280;31062;49.678;24.560;2023-08-20T07:58:31;98589.28;;;29.17;58.66
45327;BME280;31062;49.678;24.560;2023-08-20T08:01:17;98558.44;;;29.00;58.49
45327;BME280;31062;49.678;24.560;2023-08-20T08:04:04;98475.19;;;28.51;58.63
45327;BME280;31062;49.678;24.560;2023-08-20T08:06:51;98593.09;;;29.42;56.41
45327;BME280;31062;49.678;24.560;2023-08-20T08:09:37;98586.72;;;29.52;54.77
45327;BME280;31062;49.678;24.560;2023-08-20T08:12:32;98566.69;;;29.46;54.72
45327;BME280;31062;49.678;24.560;2023-08-20T08:15:19;98591.81;;;29.63;53.97
45327;BME280;31062;49.678;24.560;2023-08-20T08:18:06;98596.09;;;29.62;52.79
45327;BME280;31062;49.678;24.560;2023-08-20T08:20:52;98596.16;;;29.71;53.45
45327;BME280;31062;49.678;24.560;2023-08-20T08:23:41;98588.38;;;29.81;55.72
45327;BME280;31062;49.678;24.560;2023-08-20T08:26:30;98584.91;;;29.95;54.49
45327;BME280;31062;49.678;24.560;2023-08-20T08:29:16;98589.19;;;29.94;52.24
45327;BME280;31062;49.678;24.560;2023-08-20T08:32:24;98564.06;;;29.76;53.10
45327;BME280;31062;49.678;24.560;2023-08-20T08:35:09;98574.81;;;29.84;52.89
45327;BME280;31062;49.678;24.560;2023-08-20T08:37:54;98507.47;;;29.52;52.97
45327;BME280;31062;49.678;24.560;2023-08-20T08:40:40;98592.09;;;30.04;52.75
45327;BME280;31062;49.678;24.560;2023-08-20T08:43:28;98539.00;;;29.67;52.00
45327;BME280;31062;49.678;24.560;2023-08-20T08:46:16;98598.41;;;29.88;51.61
45327;BME280;31062;49.678;24.560;2023-08-20T08:49:02;98467.16;;;29.08;52.91
45327;BME280;31062;49.678;24.560;2023-08-20T08:51:50;98572.66;;;29.82;52.61
45327;BME280;31062;49.678;24.560;2023-08-20T08:54:42;98593.53;;;30.05;53.58
45327;BME280;31062;49.678;24.560;2023-08-20T08:57:37;98544.09;;;29.86;52.59
45327;BME280;31062;49.678;24.560;2023-08-20T09:00:23;98602.19;;;30.19;52.31
45327;BME280;31062;49.678;24.560;2023-08-20T09:03:12;98585.81;;;30.32;51.93
45327;BME280;31062;49.678;24.560;2023-08-20T09:06:10;98587.28;;;30.41;50.45
45327;BME280;31062;49.678;24.560;2023-08-20T09:09:04;98481.88;;;29.67;50.96
45327;BME280;31062;49.678;24.560;2023-08-20T09:11:50;98554.34;;;30.26;50.88
45327;BME280;31062;49.678;24.560;2023-08-20T09:14:35;98570.84;;;30.37;51.47
45327;BME280;31062;49.678;24.560;2023-08-20T09:17:25;98543.63;;;30.26;50.45
45327;BME280;31062;49.678;24.560;2023-08-20T09:20:11;98547.94;;;30.31;51.58
45327;BME280;31062;49.678;24.560;2023-08-20T09:22:57;98502.06;;;30.01;50.45
45327;BME280;31062;49.678;24.560;2023-08-20T09:25:43;98594.56;;;30.66;50.43
45327;BME280;31062;49.678;24.560;2023-08-20T09:28:40;98474.16;;;29.93;50.98
45327;BME280;31062;49.678;24.560;2023-08-20T09:31:38;98606.75;;;30.81;50.72
45327;BME280;31062;49.678;24.560;2023-08-20T09:34:24;98498.53;;;30.17;50.53
45327;BME280;31062;49.678;24.560;2023-08-20T09:37:13;98576.69;;;30.74;49.47
45327;BME280;31062;49.678;24.560;2023-08-20T09:39:59;98591.06;;;30.96;49.28
45327;BME280;31062;49.678;24.560;2023-08-20T09:42:45;98598.94;;;31.02;49.45
45327;BME280;31062;49.678;24.560;2023-08-20T09:45:31;98615.41;;;31.05;50.33
45327;BME280;31062;49.678;24.560;2023-08-20T09:48:20;98602.56;;;31.04;49.25
45327;BME280;31062;49.678;24.560;2023-08-20T09:51:10;98553.09;;;30.73;49.38
45327;BME280;31062;49.678;24.560;2023-08-20T09:54:05;98594.63;;;30.97;50.07
45327;BME280;31062;49.678;24.560;2023-08-20T09:56:56;98602.50;;;30.96;49.70
45327;BME280;31062;49.678;24.560;2023-08-20T09:59:45;98517.91;;;30.36;50.08
45327;BME280;31062;49.678;24.560;2023-08-20T10:02:33;98507.81;;;30.11;50.31
45327;BME280;31062;49.678;24.560;2023-08-20T10:05:19;98616.72;;;30.70;50.15
45327;BME280;31062;49.678;24.560;2023-08-20T10:08:07;98574.47;;;30.48;51.31
45327;BME280;31062;49.678;24.560;2023-08-20T10:10:53;98519.25;;;30.15;51.64
45327;BME280;31062;49.678;24.560;2023-08-20T10:13:39;98548.69;;;30.44;52.23
45327;BME280;31062;49.678;24.560;2023-08-20T10:16:27;98464.16;;;29.94;51.50
45327;BME280;31062;49.678;24.560;2023-08-20T10:19:15;98596.78;;;30.96;50.94
45327;BME280;31062;49.678;24.560;2023-08-20T10:22:03;98588.91;;;30.97;50.45
45327;BME280;31062;49.678;24.560;2023-08-20T10:24:51;98583.88;;;30.99;49.26
45327;BME280;31062;49.678;24.560;2023-08-20T10:27:41;98594.63;;;30.95;50.39
45327;BME280;31062;49.678;24.560;2023-08-20T10:30:27;98581.75;;;30.98;51.65
45327;BME280;31062;49.678;24.560;2023-08-20T10:33:13;98565.28;;;30.90;52.46
45327;BME280;31062;49.678;24.560;2023-08-20T10:36:16;98563.16;;;30.97;51.62
45327;BME280;31062;49.678;24.560;2023-08-20T10:39:04;98493.66;;;30.50;50.25
45327;BME280;31062;49.678;24.560;2023-08-20T10:42:08;98561.75;;;31.04;51.16
45327;BME280;31062;49.678;24.560;2023-08-20T10:45:08;98538.06;;;30.83;50.74
45327;BME280;31062;49.678;24.560;2023-08-20T10:47:54;98572.47;;;31.11;50.40
45327;BME280;31062;49.678;24.560;2023-08-20T10:50:40;98552.41;;;30.85;50.57
45327;BME280;31062;49.678;24.560;2023-08-20T10:53:26;98567.44;;;30.98;50.50
45327;BME280;31062;49.678;24.560;2023-08-20T10:56:15;98528.72;;;30.60;51.84
45327;BME280;31062;49.678;24.560;2023-08-20T10:59:07;98450.63;;;30.05;53.18
45327;BME280;31062;49.678;24.560;2023-08-20T11:01:58;98560.97;;;30.89;51.62
45327;BME280;31062;49.678;24.560;2023-08-20T11:04:44;98576.00;;;30.86;51.82
45327;BME280;31062;49.678;24.560;2023-08-20T11:07:30;98555.25;;;30.93;52.80
45327;BME280;31062;49.678;24.560;2023-08-20T11:10:17;98436.31;;;30.09;51.40
45327;BME280;31062;49.678;24.560;2023-08-20T11:13:03;98555.28;;;30.95;50.32
45327;BME280;31062;49.678;24.560;2023-08-20T11:15:48;98469.28;;;30.36;50.74
45327;BME280;31062;49.678;24.560;2023-08-20T11:18:35;98545.25;;;31.00;51.38
45327;BME280;31062;49.678;24.560;2023-08-20T11:21:21;98550.31;;;31.04;50.14
45327;BME280;31062;49.678;24.560;2023-08-20T11:24:08;98495.13;;;30.65;48.72
45327;BME280;31062;49.678;24.560;2023-08-20T11:26:53;98512.31;;;30.81;49.57
45327;BME280;31062;49.678;24.560;2023-08-20T11:29:44;98540.25;;;30.97;50.59
45327;BME280;31062;49.678;24.560;2023-08-20T11:32:31;98532.38;;;31.03;51.66
45327;BME280;31062;49.678;24.560;2023-08-20T11:35:18;98513.75;;;30.88;50.09
45327;BME280;31062;49.678;24.560;2023-08-20T11:38:04;98536.72;;;31.08;49.92
45327;BME280;31062;49.678;24.560;2023-08-20T11:40:50;98515.19;;;30.87;48.85
45327;BME280;31062;49.678;24.560;2023-08-20T11:43:37;98445.03;;;30.50;50.08
45327;BME280;31062;49.678;24.560;2023-08-20T11:46:23;98523.09;;;31.13;50.28
45327;BME280;31062;49.678;24.560;2023-08-20T11:49:10;98526.66;;;31.17;48.78
45327;BME280;31062;49.678;24.560;2023-08-20T11:51:56;98505.22;;;31.14;49.39
45327;BME280;31062;49.678;24.560;2023-08-20T11:54:42;98529.53;;;31.32;48.76
45327;BME280;31062;49.678;24.560;2023-08-20T11:57:29;98410.72;;;30.54;49.23
45327;BME280;31062;49.678;24.560;2023-08-20T12:00:24;98508.03;;;31.35;48.66
45327;BME280;31062;49.678;24.560;2023-08-20T12:03:10;98520.97;;;31.40;48.99
45327;BME280;31062;49.678;24.560;2023-08-20T12:05:56;98506.63;;;31.38;48.00
45327;BME280;31062;49.678;24.560;2023-08-20T12:08:41;98519.50;;;31.45;48.00
45327;BME280;31062;49.678;24.560;2023-08-20T12:11:28;98417.88;;;30.75;47.77
45327;BME280;31062;49.678;24.560;2023-08-20T12:14:13;98513.06;;;31.50;47.38
45327;BME280;31062;49.678;24.560;2023-08-20T12:16:59;98392.13;;;30.69;47.17
45327;BME280;31062;49.678;24.560;2023-08-20T12:19:45;98510.91;;;31.45;47.99
45327;BME280;31062;49.678;24.560;2023-08-20T12:22:30;98505.19;;;31.45;47.34
45327;BME280;31062;49.678;24.560;2023-08-20T12:25:16;98479.44;;;31.18;48.14
45327;BME280;31062;49.678;24.560;2023-08-20T12:28:02;98495.16;;;31.46;46.52
45327;BME280;31062;49.678;24.560;2023-08-20T12:30:50;98489.44;;;31.40;46.77
45327;BME280;31062;49.678;24.560;2023-08-20T12:33:35;98473.69;;;31.22;47.84
45327;BME280;31062;49.678;24.560;2023-08-20T12:36:21;98377.09;;;30.58;46.94
45327;BME280;31062;49.678;24.560;2023-08-20T12:39:06;98446.53;;;31.15;47.46
45327;BME280;31062;49.678;24.560;2023-08-20T12:41:52;98480.13;;;31.43;47.26
45327;BME280;31062;49.678;24.560;2023-08-20T12:44:37;98486.59;;;31.40;45.65
45327;BME280;31062;49.678;24.560;2023-08-20T12:47:24;98483.72;;;31.38;45.76
45327;BME280;31062;49.678;24.560;2023-08-20T12:50:10;98455.09;;;31.19;46.32
45327;BME280;31062;49.678;24.560;2023-08-20T12:52:58;98376.41;;;30.66;45.03
45327;BME280;31062;49.678;24.560;2023-08-20T12:55:44;98480.84;;;31.40;45.41
45327;BME280;31062;49.678;24.560;2023-08-20T12:58:30;98412.16;;;30.95;45.57
45327;BME280;31062;49.678;24.560;2023-08-20T13:01:16;98463.66;;;31.36;44.48
45327;BME280;31062;49.678;24.560;2023-08-20T13:04:04;98473.66;;;31.47;43.68
45327;BME280;31062;49.678;24.560;2023-08-20T13:06:52;98469.38;;;31.44;42.67
45327;BME280;31062;49.678;24.560;2023-08-20T13:09:39;98330.63;;;30.50;43.46
45327;BME280;31062;49.678;24.560;2023-08-20T13:12:26;98457.91;;;31.44;44.19
45327;BME280;31062;49.678;24.560;2023-08-20T13:15:13;98437.91;;;31.34;43.55
45327;BME280;31062;49.678;24.560;2023-08-20T13:17:59;98423.59;;;31.03;44.79
45327;BME280;31062;49.678;24.560;2023-08-20T13:20:45;98443.63;;;31.26;43.62
45327;BME280;31062;49.678;24.560;2023-08-20T13:23:31;98359.22;;;30.70;42.41
45327;BME280;31062;49.678;24.560;2023-08-20T13:26:16;98439.31;;;31.35;43.20
45327;BME280;31062;49.678;24.560;2023-08-20T13:29:03;98338.47;;;30.59;42.30
45327;BME280;31062;49.678;24.560;2023-08-20T13:31:49;98427.88;;;31.16;41.45
45327;BME280;31062;49.678;24.560;2023-08-20T13:34:34;98402.13;;;31.06;41.75
45327;BME280;31062;49.678;24.560;2023-08-20T13:37:21;98329.19;;;30.61;41.01
45327;BME280;31062;49.678;24.560;2023-08-20T13:40:08;98406.41;;;31.21;41.18
45327;BME280;31062;49.678;24.560;2023-08-20T13:42:55;98443.59;;;31.38;41.67
45327;BME280;31062;49.678;24.560;2023-08-20T13:45:40;98436.44;;;31.39;42.30
45327;BME280;31062;49.678;24.560;2023-08-20T13:48:26;98415.00;;;31.21;41.97
45327;BME280;31062;49.678;24.560;2023-08-20T13:51:11;98392.09;;;30.93;41.70
45327;BME280;31062;49.678;24.560;2023-08-20T13:53:57;98332.06;;;30.53;42.73
45327;BME280;31062;49.678;24.560;2023-08-20T13:56:43;98456.47;;;31.43;42.78
45327;BME280;31062;49.678;24.560;2023-08-20T13:59:30;98460.78;;;31.42;42.72
45327;BME280;31062;49.678;24.560;2023-08-20T14:02:16;98438.56;;;31.40;41.97
45327;BME280;31062;49.678;24.560;2023-08-20T14:05:02;98443.59;;;31.42;41.88
45327;BME280;31062;49.678;24.560;2023-08-20T14:07:49;98447.91;;;31.45;41.89
45327;BME280;31062;49.678;24.560;2023-08-20T14:10:35;98309.16;;;30.47;42.15
45327;BME280;31062;49.678;24.560;2023-08-20T14:13:21;98400.69;;;31.03;43.20
45327;BME280;31062;49.678;24.560;2023-08-20T14:16:06;98317.72;;;30.47;43.28
45327;BME280;31062;49.678;24.560;2023-08-20T14:18:52;98442.91;;;31.33;45.04
45327;BME280;31062;49.678;24.560;2023-08-20T14:21:37;98452.19;;;31.38;45.38
45327;BME280;31062;49.678;24.560;2023-08-20T14:24:23;98469.38;;;31.38;45.99
45327;BME280;31062;49.678;24.560;2023-08-20T14:27:08;98339.19;;;30.58;45.71
45327;BME280;31062;49.678;24.560;2023-08-20T14:29:53;98447.91;;;31.35;45.33
45327;BME280;31062;49.678;24.560;2023-08-20T14:32:39;98442.19;;;31.29;45.50
45327;BME280;31062;49.678;24.560;2023-08-20T14:35:26;98413.56;;;31.16;45.77
45327;BME280;31062;49.678;24.560;2023-08-20T14:38:11;98309.16;;;30.34;46.30